< < Back
Terminal Aerodrome Forecast


Current Version              Previous Versions:   1  2  3  4  5  6  7  8  9  

Terminal Aerodrome Forecast

786
FTUS44 KBMX 262327
TAFMGM
TAF
KMGM 262327Z 2700/2724 21007KT 4SM -SHRA VCTS OVC050CB
     FM270500 32012G18KT P6SM VCSH OVC015
     FM271400 32012G18KT P6SM SCT025=

Latest METAR

647
SAUS80 KWBC 270300
MTRMGM
METAR KMGM 270253Z 19004KT 10SM BKN013 BKN018 OVC025 19/17 A2982 RMK AO2
SLPNO 60065 T01940172 50007 $


USA.gov is the U.S. government's official web portal to all federal, state and local government web resources and services.